sensor_id;sensor_type;location;lat;lon;timestamp;P1;P2;P0
40947;PMS5003;49382;-25.924;28.194;2022-08-18T00:01:47;94;91;
40947;PMS5003;49382;-25.924;28.194;2022-08-18T00:04:11;90;88;
40947;PMS5003;49382;-25.924;28.194;2022-08-18T00:06:37;84;83;
40947;PMS5003;49382;-25.924;28.194;2022-08-18T00:09:03;87;84;
40947;PMS5003;49382;-25.924;28.194;2022-08-18T00:11:29;84;84;
40947;PMS5003;49382;-25.924;28.194;2022-08-18T00:13:54;84;82;
40947;PMS5003;49382;-25.924;28.194;2022-08-18T00:16:19;77;76;
40947;PMS5003;49382;-25.924;28.194;2022-08-18T00:18:45;72;70;
40947;PMS5003;49382;-25.924;28.194;2022-08-18T00:21:10;87;86;
40947;PMS5003;49382;-25.924;28.194;2022-08-18T00:23:36;86;84;
40947;PMS5003;49382;-25.924;28.194;2022-08-18T00:26:01;89;86;
40947;PMS5003;49382;-25.924;28.194;2022-08-18T00:28:27;85;84;
40947;PMS5003;49382;-25.924;28.194;2022-08-18T00:30:53;79;78;
40947;PMS5003;49382;-25.924;28.194;2022-08-18T00:33:18;84;83;
40947;PMS5003;49382;-25.924;28.194;2022-08-18T00:35:43;87;83;
40947;PMS5003;49382;-25.924;28.194;2022-08-18T00:38:09;79;79;
40947;PMS5003;49382;-25.924;28.194;2022-08-18T00:40:37;99;97;
40947;PMS5003;49382;-25.924;28.194;2022-08-18T00:43:01;96;94;
40947;PMS5003;49382;-25.924;28.194;2022-08-18T00:45:27;76;76;
40947;PMS5003;49382;-25.924;28.194;2022-08-18T00:47:50;86;85;
40947;PMS5003;49382;-25.924;28.194;2022-08-18T00:50:17;88;86;
40947;PMS5003;49382;-25.924;28.194;2022-08-18T00:52:42;81;79;
40947;PMS5003;49382;-25.924;28.194;2022-08-18T00:55:06;77;74;
40947;PMS5003;49382;-25.924;28.194;2022-08-18T00:57:31;81;80;
40947;PMS5003;49382;-25.924;28.194;2022-08-18T00:59:58;74;73;
40947;PMS5003;49382;-25.924;28.194;2022-08-18T01:02:24;70;69;
40947;PMS5003;49382;-25.924;28.194;2022-08-18T01:04:56;60;59;
40947;PMS5003;49382;-25.924;28.194;2022-08-18T01:07:15;55;53;
40947;PMS5003;49382;-25.924;28.194;2022-08-18T01:09:39;60;58;
40947;PMS5003;49382;-25.924;28.194;2022-08-18T01:12:05;56;52;
40947;PMS5003;49382;-25.924;28.194;2022-08-18T01:14:30;67;65;
40947;PMS5003;49382;-25.924;28.194;2022-08-18T01:16:55;56;55;
40947;PMS5003;49382;-25.924;28.194;2022-08-18T01:19:20;56;55;
40947;PMS5003;49382;-25.924;28.194;2022-08-18T01:21:47;52;51;
40947;PMS5003;49382;-25.924;28.194;2022-08-18T01:24:11;54;53;
40947;PMS5003;49382;-25.924;28.194;2022-08-18T01:26:37;55;51;
40947;PMS5003;49382;-25.924;28.194;2022-08-18T01:29:03;51;50;
40947;PMS5003;49382;-25.924;28.194;2022-08-18T01:31:30;68;65;
40947;PMS5003;49382;-25.924;28.194;2022-08-18T01:33:53;66;64;
40947;PMS5003;49382;-25.924;28.194;2022-08-18T01:36:18;73;70;
40947;PMS5003;49382;-25.924;28.194;2022-08-18T01:38:45;69;68;
40947;PMS5003;49382;-25.924;28.194;2022-08-18T01:41:09;106;100;
40947;PMS5003;49382;-25.924;28.194;2022-08-18T01:43:35;130;123;
40947;PMS5003;49382;-25.924;28.194;2022-08-18T01:46:01;116;112;
40947;PMS5003;49382;-25.924;28.194;2022-08-18T01:48:26;98;93;
40947;PMS5003;49382;-25.924;28.194;2022-08-18T01:50:51;79;76;
40947;PMS5003;49382;-25.924;28.194;2022-08-18T01:53:17;66;64;
40947;PMS5003;49382;-25.924;28.194;2022-08-18T01:55:42;63;62;
40947;PMS5003;49382;-25.924;28.194;2022-08-18T01:58:07;61;60;
40947;PMS5003;49382;-25.924;28.194;2022-08-18T02:00:33;66;65;
40947;PMS5003;49382;-25.924;28.194;2022-08-18T02:02:59;66;65;
40947;PMS5003;49382;-25.924;28.194;2022-08-18T02:05:28;72;70;
40947;PMS5003;49382;-25.924;28.194;2022-08-18T02:07:50;61;61;
40947;PMS5003;49382;-25.924;28.194;2022-08-18T02:10:15;62;60;
40947;PMS5003;49382;-25.924;28.194;2022-08-18T02:12:41;64;63;
40947;PMS5003;49382;-25.924;28.194;2022-08-18T02:15:08;66;65;
40947;PMS5003;49382;-25.924;28.194;2022-08-18T02:17:35;64;63;
40947;PMS5003;49382;-25.924;28.194;2022-08-18T02:19:57;62;60;
40947;PMS5003;49382;-25.924;28.194;2022-08-18T02:22:23;67;64;
40947;PMS5003;49382;-25.924;28.194;2022-08-18T02:24:48;68;67;
40947;PMS5003;49382;-25.924;28.194;2022-08-18T02:27:15;55;54;
40947;PMS5003;49382;-25.924;28.194;2022-08-18T02:29:39;56;54;
40947;PMS5003;49382;-25.924;28.194;2022-08-18T02:32:04;59;56;
40947;PMS5003;49382;-25.924;28.194;2022-08-18T02:34:30;59;58;
40947;PMS5003;49382;-25.924;28.194;2022-08-18T02:36:55;50;48;
40947;PMS5003;49382;-25.924;28.194;2022-08-18T02:39:20;56;56;
40947;PMS5003;49382;-25.924;28.194;2022-08-18T02:41:46;54;53;
40947;PMS5003;49382;-25.924;28.194;2022-08-18T02:44:12;53;51;
40947;PMS5003;49382;-25.924;28.194;2022-08-18T02:46:37;57;57;
40947;PMS5003;49382;-25.924;28.194;2022-08-18T02:49:02;45;44;
40947;PMS5003;49382;-25.924;28.194;2022-08-18T02:51:27;54;54;
40947;PMS5003;49382;-25.924;28.194;2022-08-18T02:53:53;60;60;
40947;PMS5003;49382;-25.924;28.194;2022-08-18T02:56:19;54;53;
40947;PMS5003;49382;-25.924;28.194;2022-08-18T02:58:43;59;58;
40947;PMS5003;49382;-25.924;28.194;2022-08-18T03:01:09;66;66;
40947;PMS5003;49382;-25.924;28.194;2022-08-18T03:03:35;57;57;
40947;PMS5003;49382;-25.924;28.194;2022-08-18T03:06:00;62;61;
40947;PMS5003;49382;-25.924;28.194;2022-08-18T03:08:25;61;59;
40947;PMS5003;49382;-25.924;28.194;2022-08-18T03:10:51;60;59;
40947;PMS5003;49382;-25.924;28.194;2022-08-18T03:13:17;61;60;
40947;PMS5003;49382;-25.924;28.194;2022-08-18T03:15:42;58;57;
40947;PMS5003;49382;-25.924;28.194;2022-08-18T03:18:08;62;60;
40947;PMS5003;49382;-25.924;28.194;2022-08-18T03:20:34;60;59;
40947;PMS5003;49382;-25.924;28.194;2022-08-18T03:22:59;66;66;
40947;PMS5003;49382;-25.924;28.194;2022-08-18T03:25:24;57;56;
40947;PMS5003;49382;-25.924;28.194;2022-08-18T03:27:49;53;53;
40947;PMS5003;49382;-25.924;28.194;2022-08-18T03:30:14;66;64;
40947;PMS5003;49382;-25.924;28.194;2022-08-18T03:32:40;57;56;
40947;PMS5003;49382;-25.924;28.194;2022-08-18T03:35:06;53;51;
40947;PMS5003;49382;-25.924;28.194;2022-08-18T03:37:31;56;55;
40947;PMS5003;49382;-25.924;28.194;2022-08-18T03:39:56;58;54;
40947;PMS5003;49382;-25.924;28.194;2022-08-18T03:42:21;57;56;
40947;PMS5003;49382;-25.924;28.194;2022-08-18T03:44:47;49;49;
40947;PMS5003;49382;-25.924;28.194;2022-08-18T03:47:13;48;47;
40947;PMS5003;49382;-25.924;28.194;2022-08-18T03:49:38;48;48;
40947;PMS5003;49382;-25.924;28.194;2022-08-18T03:52:06;51;50;
40947;PMS5003;49382;-25.924;28.194;2022-08-18T03:54:30;49;48;
40947;PMS5003;49382;-25.924;28.194;2022-08-18T03:56:54;52;52;
40947;PMS5003;49382;-25.924;28.194;2022-08-18T03:59:20;50;48;
40947;PMS5003;49382;-25.924;28.194;2022-08-18T04:01:46;41;41;
40947;PMS5003;49382;-25.924;28.194;2022-08-18T04:04:12;43;43;
40947;PMS5003;49382;-25.924;28.194;2022-08-18T04:06:37;45;44;
40947;PMS5003;49382;-25.924;28.194;2022-08-18T04:09:02;44;43;
40947;PMS5003;49382;-25.924;28.194;2022-08-18T04:11:27;44;43;
40947;PMS5003;49382;-25.924;28.194;2022-08-18T04:13:53;45;44;
40947;PMS5003;49382;-25.924;28.194;2022-08-18T04:16:18;47;47;
40947;PMS5003;49382;-25.924;28.194;2022-08-18T04:18:43;52;51;
40947;PMS5003;49382;-25.924;28.194;2022-08-18T04:21:09;60;58;
40947;PMS5003;49382;-25.924;28.194;2022-08-18T04:23:34;61;58;
40947;PMS5003;49382;-25.924;28.194;2022-08-18T04:26:00;64;62;
40947;PMS5003;49382;-25.924;28.194;2022-08-18T04:28:26;70;68;
40947;PMS5003;49382;-25.924;28.194;2022-08-18T04:30:51;69;66;
40947;PMS5003;49382;-25.924;28.194;2022-08-18T04:33:16;60;58;
40947;PMS5003;49382;-25.924;28.194;2022-08-18T04:35:41;65;64;
40947;PMS5003;49382;-25.924;28.194;2022-08-18T04:38:06;61;59;
40947;PMS5003;49382;-25.924;28.194;2022-08-18T04:40:31;64;61;
40947;PMS5003;49382;-25.924;28.194;2022-08-18T04:42:57;61;61;
40947;PMS5003;49382;-25.924;28.194;2022-08-18T04:45:22;60;58;
40947;PMS5003;49382;-25.924;28.194;2022-08-18T04:47:48;63;60;
40947;PMS5003;49382;-25.924;28.194;2022-08-18T04:50:13;62;61;
40947;PMS5003;49382;-25.924;28.194;2022-08-18T04:52:38;65;63;
40947;PMS5003;49382;-25.924;28.194;2022-08-18T04:55:04;56;51;
40947;PMS5003;49382;-25.924;28.194;2022-08-18T04:57:29;57;56;
40947;PMS5003;49382;-25.924;28.194;2022-08-18T04:59:54;55;54;
40947;PMS5003;49382;-25.924;28.194;2022-08-18T05:02:20;60;58;
40947;PMS5003;49382;-25.924;28.194;2022-08-18T05:04:46;61;60;
40947;PMS5003;49382;-25.924;28.194;2022-08-18T05:07:12;63;62;
40947;PMS5003;49382;-25.924;28.194;2022-08-18T05:09:37;64;59;
40947;PMS5003;49382;-25.924;28.194;2022-08-18T05:12:03;66;62;
40947;PMS5003;49382;-25.924;28.194;2022-08-18T05:14:27;88;86;
40947;PMS5003;49382;-25.924;28.194;2022-08-18T05:16:56;84;82;
40947;PMS5003;49382;-25.924;28.194;2022-08-18T05:19:19;80;78;
40947;PMS5003;49382;-25.924;28.194;2022-08-18T05:21:44;81;80;
40947;PMS5003;49382;-25.924;28.194;2022-08-18T05:24:10;78;77;
40947;PMS5003;49382;-25.924;28.194;2022-08-18T05:26:35;90;88;
40947;PMS5003;49382;-25.924;28.194;2022-08-18T05:29:01;82;79;
40947;PMS5003;49382;-25.924;28.194;2022-08-18T05:31:27;69;67;
40947;PMS5003;49382;-25.924;28.194;2022-08-18T05:33:53;68;66;
40947;PMS5003;49382;-25.924;28.194;2022-08-18T05:36:20;68;67;
40947;PMS5003;49382;-25.924;28.194;2022-08-18T05:38:47;66;64;
40947;PMS5003;49382;-25.924;28.194;2022-08-18T05:41:09;62;60;
40947;PMS5003;49382;-25.924;28.194;2022-08-18T05:43:34;62;59;
40947;PMS5003;49382;-25.924;28.194;2022-08-18T05:45:59;60;57;
40947;PMS5003;49382;-25.924;28.194;2022-08-18T05:48:25;64;60;
40947;PMS5003;49382;-25.924;28.194;2022-08-18T05:50:50;63;62;
40947;PMS5003;49382;-25.924;28.194;2022-08-18T05:53:16;57;56;
40947;PMS5003;49382;-25.924;28.194;2022-08-18T05:55:43;52;52;
40947;PMS5003;49382;-25.924;28.194;2022-08-18T05:58:08;58;55;
40947;PMS5003;49382;-25.924;28.194;2022-08-18T06:00:33;51;49;
40947;PMS5003;49382;-25.924;28.194;2022-08-18T06:03:00;49;46;
40947;PMS5003;49382;-25.924;28.194;2022-08-18T06:05:26;38;38;
40947;PMS5003;49382;-25.924;28.194;2022-08-18T06:07:50;36;35;
40947;PMS5003;49382;-25.924;28.194;2022-08-18T06:10:15;29;29;
40947;PMS5003;49382;-25.924;28.194;2022-08-18T06:12:41;29;29;
40947;PMS5003;49382;-25.924;28.194;2022-08-18T06:15:07;26;25;
40947;PMS5003;49382;-25.924;28.194;2022-08-18T06:17:36;26;24;
40947;PMS5003;49382;-25.924;28.194;2022-08-18T06:19:59;23;23;
40947;PMS5003;49382;-25.924;28.194;2022-08-18T06:22:25;23;23;
40947;PMS5003;49382;-25.924;28.194;2022-08-18T06:24:49;26;25;
40947;PMS5003;49382;-25.924;28.194;2022-08-18T06:27:16;19;19;
40947;PMS5003;49382;-25.924;28.194;2022-08-18T06:29:43;20;19;
40947;PMS5003;49382;-25.924;28.194;2022-08-18T06:32:08;19;19;
40947;PMS5003;49382;-25.924;28.194;2022-08-18T06:34:32;24;23;
40947;PMS5003;49382;-25.924;28.194;2022-08-18T06:36:57;20;20;
40947;PMS5003;49382;-25.924;28.194;2022-08-18T06:39:23;21;21;
40947;PMS5003;49382;-25.924;28.194;2022-08-18T06:41:46;21;21;
40947;PMS5003;49382;-25.924;28.194;2022-08-18T06:44:12;24;24;
40947;PMS5003;49382;-25.924;28.194;2022-08-18T06:46:38;27;25;
40947;PMS5003;49382;-25.924;28.194;2022-08-18T06:49:02;23;23;
40947;PMS5003;49382;-25.924;28.194;2022-08-18T06:51:27;29;28;
40947;PMS5003;49382;-25.924;28.194;2022-08-18T06:53:53;30;30;
40947;PMS5003;49382;-25.924;28.194;2022-08-18T06:56:20;31;31;
40947;PMS5003;49382;-25.924;28.194;2022-08-18T06:58:43;31;31;
40947;PMS5003;49382;-25.924;28.194;2022-08-18T07:01:08;34;33;
40947;PMS5003;49382;-25.924;28.194;2022-08-18T07:06:00;38;37;
40947;PMS5003;49382;-25.924;28.194;2022-08-18T07:08:27;46;46;
40947;PMS5003;49382;-25.924;28.194;2022-08-18T07:10:50;37;36;
40947;PMS5003;49382;-25.924;28.194;2022-08-18T07:13:16;37;36;
40947;PMS5003;49382;-25.924;28.194;2022-08-18T07:15:40;39;39;
40947;PMS5003;49382;-25.924;28.194;2022-08-18T07:18:06;42;41;
40947;PMS5003;49382;-25.924;28.194;2022-08-18T07:20:30;50;49;
40947;PMS5003;49382;-25.924;28.194;2022-08-18T07:22:58;47;46;
40947;PMS5003;49382;-25.924;28.194;2022-08-18T07:25:23;47;46;
40947;PMS5003;49382;-25.924;28.194;2022-08-18T07:27:48;53;52;
40947;PMS5003;49382;-25.924;28.194;2022-08-18T07:30:13;48;47;
40947;PMS5003;49382;-25.924;28.194;2022-08-18T07:32:39;46;43;
40947;PMS5003;49382;-25.924;28.194;2022-08-18T07:35:04;44;44;
40947;PMS5003;49382;-25.924;28.194;2022-08-18T07:37:30;44;44;
40947;PMS5003;49382;-25.924;28.194;2022-08-18T07:39:55;46;46;
40947;PMS5003;49382;-25.924;28.194;2022-08-18T07:42:21;45;45;
40947;PMS5003;49382;-25.924;28.194;2022-08-18T07:44:47;44;43;
40947;PMS5003;49382;-25.924;28.194;2022-08-18T07:47:12;45;45;
40947;PMS5003;49382;-25.924;28.194;2022-08-18T07:49:36;44;42;
40947;PMS5003;49382;-25.924;28.194;2022-08-18T07:52:03;48;48;
40947;PMS5003;49382;-25.924;28.194;2022-08-18T07:54:30;51;51;
40947;PMS5003;49382;-25.924;28.194;2022-08-18T07:56:54;50;50;
40947;PMS5003;49382;-25.924;28.194;2022-08-18T07:59:19;54;51;
40947;PMS5003;49382;-25.924;28.194;2022-08-18T08:01:45;48;46;
40947;PMS5003;49382;-25.924;28.194;2022-08-18T08:04:11;59;58;
40947;PMS5003;49382;-25.924;28.194;2022-08-18T08:06:36;58;58;
40947;PMS5003;49382;-25.924;28.194;2022-08-18T08:09:02;52;51;
40947;PMS5003;49382;-25.924;28.194;2022-08-18T08:11:29;59;58;
40947;PMS5003;49382;-25.924;28.194;2022-08-18T08:13:56;58;58;
40947;PMS5003;49382;-25.924;28.194;2022-08-18T08:16:19;95;92;
40947;PMS5003;49382;-25.924;28.194;2022-08-18T08:18:44;79;78;
40947;PMS5003;49382;-25.924;28.194;2022-08-18T08:21:08;61;60;
40947;PMS5003;49382;-25.924;28.194;2022-08-18T08:23:34;55;54;
40947;PMS5003;49382;-25.924;28.194;2022-08-18T08:26:02;59;58;
40947;PMS5003;49382;-25.924;28.194;2022-08-18T08:28:27;52;52;
40947;PMS5003;49382;-25.924;28.194;2022-08-18T08:30:52;57;56;
40947;PMS5003;49382;-25.924;28.194;2022-08-18T08:33:18;76;75;
40947;PMS5003;49382;-25.924;28.194;2022-08-18T08:35:42;53;53;
40947;PMS5003;49382;-25.924;28.194;2022-08-18T08:38:07;56;56;
40947;PMS5003;49382;-25.924;28.194;2022-08-18T08:40:35;53;52;
40947;PMS5003;49382;-25.924;28.194;2022-08-18T08:42:59;53;53;
40947;PMS5003;49382;-25.924;28.194;2022-08-18T08:45:24;52;52;
40947;PMS5003;49382;-25.924;28.194;2022-08-18T08:47:50;49;49;
40947;PMS5003;49382;-25.924;28.194;2022-08-18T08:50:14;52;52;
40947;PMS5003;49382;-25.924;28.194;2022-08-18T08:52:40;52;52;
40947;PMS5003;49382;-25.924;28.194;2022-08-18T08:55:06;53;53;
40947;PMS5003;49382;-25.924;28.194;2022-08-18T08:57:32;49;48;
40947;PMS5003;49382;-25.924;28.194;2022-08-18T08:59:56;50;50;
40947;PMS5003;49382;-25.924;28.194;2022-08-18T09:02:24;54;54;
40947;PMS5003;49382;-25.924;28.194;2022-08-18T09:04:48;58;54;
40947;PMS5003;49382;-25.924;28.194;2022-08-18T09:07:15;55;54;
40947;PMS5003;49382;-25.924;28.194;2022-08-18T09:14:34;54;54;
40947;PMS5003;49382;-25.924;28.194;2022-08-18T09:16:58;55;54;
40947;PMS5003;49382;-25.924;28.194;2022-08-18T09:21:46;51;50;
40947;PMS5003;49382;-25.924;28.194;2022-08-18T09:24:15;53;53;
40947;PMS5003;49382;-25.924;28.194;2022-08-18T09:26:46;50;50;
40947;PMS5003;49382;-25.924;28.194;2022-08-18T09:29:11;52;52;
40947;PMS5003;49382;-25.924;28.194;2022-08-18T09:31:27;55;55;
40947;PMS5003;49382;-25.924;28.194;2022-08-18T09:33:58;51;49;
40947;PMS5003;49382;-25.924;28.194;2022-08-18T09:36:21;50;50;
40947;PMS5003;49382;-25.924;28.194;2022-08-18T09:38:46;44;44;
40947;PMS5003;49382;-25.924;28.194;2022-08-18T09:41:10;56;56;
40947;PMS5003;49382;-25.924;28.194;2022-08-18T09:43:35;67;66;
40947;PMS5003;49382;-25.924;28.194;2022-08-18T09:46:00;53;53;
40947;PMS5003;49382;-25.924;28.194;2022-08-18T09:48:27;81;80;
40947;PMS5003;49382;-25.924;28.194;2022-08-18T09:50:53;63;62;
40947;PMS5003;49382;-25.924;28.194;2022-08-18T09:53:30;67;67;
40947;PMS5003;49382;-25.924;28.194;2022-08-18T09:58:13;64;62;
40947;PMS5003;49382;-25.924;28.194;2022-08-18T10:00:33;86;86;
40947;PMS5003;49382;-25.924;28.194;2022-08-18T10:03:01;68;66;
40947;PMS5003;49382;-25.924;28.194;2022-08-18T10:05:25;80;80;
40947;PMS5003;49382;-25.924;28.194;2022-08-18T10:07:50;65;65;
40947;PMS5003;49382;-25.924;28.194;2022-08-18T10:10:18;71;70;
40947;PMS5003;49382;-25.924;28.194;2022-08-18T10:12:47;112;111;
40947;PMS5003;49382;-25.924;28.194;2022-08-18T10:17:36;91;89;
40947;PMS5003;49382;-25.924;28.194;2022-08-18T10:19:59;74;74;
40947;PMS5003;49382;-25.924;28.194;2022-08-18T10:24:51;53;52;
40947;PMS5003;49382;-25.924;28.194;2022-08-18T10:36:55;55;55;
40947;PMS5003;49382;-25.924;28.194;2022-08-18T10:39:22;54;54;
40947;PMS5003;49382;-25.924;28.194;2022-08-18T10:41:51;58;58;
40947;PMS5003;49382;-25.924;28.194;2022-08-18T10:44:12;52;52;
40947;PMS5003;49382;-25.924;28.194;2022-08-18T10:46:40;58;58;
40947;PMS5003;49382;-25.924;28.194;2022-08-18T10:49:06;59;58;
40947;PMS5003;49382;-25.924;28.194;2022-08-18T10:51:33;57;57;
40947;PMS5003;49382;-25.924;28.194;2022-08-18T10:53:57;61;61;
40947;PMS5003;49382;-25.924;28.194;2022-08-18T10:56:25;60;60;
40947;PMS5003;49382;-25.924;28.194;2022-08-18T10:58:53;55;55;
40947;PMS5003;49382;-25.924;28.194;2022-08-18T11:01:14;53;50;
40947;PMS5003;49382;-25.924;28.194;2022-08-18T11:03:41;43;43;
40947;PMS5003;49382;-25.924;28.194;2022-08-18T11:06:02;49;49;
40947;PMS5003;49382;-25.924;28.194;2022-08-18T11:08:26;48;47;
40947;PMS5003;49382;-25.924;28.194;2022-08-18T11:10:52;52;52;
40947;PMS5003;49382;-25.924;28.194;2022-08-18T11:13:20;51;51;
40947;PMS5003;49382;-25.924;28.194;2022-08-18T11:15:46;52;51;
40947;PMS5003;49382;-25.924;28.194;2022-08-18T11:18:13;70;70;
40947;PMS5003;49382;-25.924;28.194;2022-08-18T11:20:34;62;61;
40947;PMS5003;49382;-25.924;28.194;2022-08-18T11:23:01;59;59;
40947;PMS5003;49382;-25.924;28.194;2022-08-18T11:25:26;53;52;
40947;PMS5003;49382;-25.924;28.194;2022-08-18T11:27:50;50;49;
40947;PMS5003;49382;-25.924;28.194;2022-08-18T11:30:16;52;50;
40947;PMS5003;49382;-25.924;28.194;2022-08-18T11:32:42;48;46;
40947;PMS5003;49382;-25.924;28.194;2022-08-18T11:35:10;55;55;
40947;PMS5003;49382;-25.924;28.194;2022-08-18T11:37:34;51;51;
40947;PMS5003;49382;-25.924;28.194;2022-08-18T11:39:59;54;53;
40947;PMS5003;49382;-25.924;28.194;2022-08-18T11:42:27;66;66;
40947;PMS5003;49382;-25.924;28.194;2022-08-18T11:44:49;55;55;
40947;PMS5003;49382;-25.924;28.194;2022-08-18T11:47:15;61;59;
40947;PMS5003;49382;-25.924;28.194;2022-08-18T11:54:33;52;52;
40947;PMS5003;49382;-25.924;28.194;2022-08-18T12:01:47;55;54;
40947;PMS5003;49382;-25.924;28.194;2022-08-18T12:04:14;68;66;
40947;PMS5003;49382;-25.924;28.194;2022-08-18T12:06:38;50;49;
40947;PMS5003;49382;-25.924;28.194;2022-08-18T12:09:03;80;80;
40947;PMS5003;49382;-25.924;28.194;2022-08-18T12:11:29;58;55;
40947;PMS5003;49382;-25.924;28.194;2022-08-18T12:13:59;51;50;
40947;PMS5003;49382;-25.924;28.194;2022-08-18T12:18:45;58;57;
40947;PMS5003;49382;-25.924;28.194;2022-08-18T12:21:10;49;47;
40947;PMS5003;49382;-25.924;28.194;2022-08-18T12:23:37;44;44;
40947;PMS5003;49382;-25.924;28.194;2022-08-18T12:26:02;50;50;
40947;PMS5003;49382;-25.924;28.194;2022-08-18T12:28:27;52;50;
40947;PMS5003;49382;-25.924;28.194;2022-08-18T12:30:52;47;44;
40947;PMS5003;49382;-25.924;28.194;2022-08-18T12:33:18;54;51;
40947;PMS5003;49382;-25.924;28.194;2022-08-18T12:35:43;42;40;
40947;PMS5003;49382;-25.924;28.194;2022-08-18T12:38:09;42;41;
40947;PMS5003;49382;-25.924;28.194;2022-08-18T12:40:35;42;42;
40947;PMS5003;49382;-25.924;28.194;2022-08-18T12:43:00;43;43;
40947;PMS5003;49382;-25.924;28.194;2022-08-18T12:45:25;45;45;
40947;PMS5003;49382;-25.924;28.194;2022-08-18T12:47:50;39;39;
40947;PMS5003;49382;-25.924;28.194;2022-08-18T12:50:16;41;41;
40947;PMS5003;49382;-25.924;28.194;2022-08-18T12:52:42;50;49;
40947;PMS5003;49382;-25.924;28.194;2022-08-18T12:55:08;36;35;
40947;PMS5003;49382;-25.924;28.194;2022-08-18T12:57:33;33;32;
40947;PMS5003;49382;-25.924;28.194;2022-08-18T12:59:58;37;36;
40947;PMS5003;49382;-25.924;28.194;2022-08-18T13:02:23;36;33;
40947;PMS5003;49382;-25.924;28.194;2022-08-18T13:04:49;33;32;
40947;PMS5003;49382;-25.924;28.194;2022-08-18T13:07:14;31;31;
40947;PMS5003;49382;-25.924;28.194;2022-08-18T13:09:40;34;33;
40947;PMS5003;49382;-25.924;28.194;2022-08-18T13:12:05;31;30;
40947;PMS5003;49382;-25.924;28.194;2022-08-18T13:14:31;33;33;
40947;PMS5003;49382;-25.924;28.194;2022-08-18T13:16:56;33;33;
40947;PMS5003;49382;-25.924;28.194;2022-08-18T13:19:21;34;32;
40947;PMS5003;49382;-25.924;28.194;2022-08-18T13:21:46;26;26;
40947;PMS5003;49382;-25.924;28.194;2022-08-18T13:24:12;34;31;
40947;PMS5003;49382;-25.924;28.194;2022-08-18T13:26:38;31;30;
40947;PMS5003;49382;-25.924;28.194;2022-08-18T13:29:03;30;30;
40947;PMS5003;49382;-25.924;28.194;2022-08-18T13:31:28;30;30;
40947;PMS5003;49382;-25.924;28.194;2022-08-18T13:33:54;32;29;
40947;PMS5003;49382;-25.924;28.194;2022-08-18T13:36:19;29;29;
40947;PMS5003;49382;-25.924;28.194;2022-08-18T13:38:44;30;30;
40947;PMS5003;49382;-25.924;28.194;2022-08-18T13:41:10;31;31;
40947;PMS5003;49382;-25.924;28.194;2022-08-18T13:43:36;30;29;
40947;PMS5003;49382;-25.924;28.194;2022-08-18T13:46:01;31;29;
40947;PMS5003;49382;-25.924;28.194;2022-08-18T13:48:26;35;35;
40947;PMS5003;49382;-25.924;28.194;2022-08-18T13:50:52;33;33;
40947;PMS5003;49382;-25.924;28.194;2022-08-18T13:53:17;30;30;
40947;PMS5003;49382;-25.924;28.194;2022-08-18T13:55:42;29;29;
40947;PMS5003;49382;-25.924;28.194;2022-08-18T13:58:07;30;30;
40947;PMS5003;49382;-25.924;28.194;2022-08-18T14:00:33;32;32;
40947;PMS5003;49382;-25.924;28.194;2022-08-18T14:02:58;30;30;
40947;PMS5003;49382;-25.924;28.194;2022-08-18T14:05:23;27;26;
40947;PMS5003;49382;-25.924;28.194;2022-08-18T14:07:49;29;29;
40947;PMS5003;49382;-25.924;28.194;2022-08-18T14:10:14;28;28;
40947;PMS5003;49382;-25.924;28.194;2022-08-18T14:12:39;28;27;
40947;PMS5003;49382;-25.924;28.194;2022-08-18T14:15:05;28;27;
40947;PMS5003;49382;-25.924;28.194;2022-08-18T14:17:30;31;30;
40947;PMS5003;49382;-25.924;28.194;2022-08-18T14:19:55;25;25;
40947;PMS5003;49382;-25.924;28.194;2022-08-18T14:22:20;29;28;
40947;PMS5003;49382;-25.924;28.194;2022-08-18T14:24:45;25;25;
40947;PMS5003;49382;-25.924;28.194;2022-08-18T14:27:11;29;29;
40947;PMS5003;49382;-25.924;28.194;2022-08-18T14:29:36;29;27;
40947;PMS5003;49382;-25.924;28.194;2022-08-18T14:32:02;30;29;
40947;PMS5003;49382;-25.924;28.194;2022-08-18T14:34:27;27;27;
40947;PMS5003;49382;-25.924;28.194;2022-08-18T14:36:52;28;28;
40947;PMS5003;49382;-25.924;28.194;2022-08-18T14:39:18;30;29;
40947;PMS5003;49382;-25.924;28.194;2022-08-18T14:41:42;29;28;
40947;PMS5003;49382;-25.924;28.194;2022-08-18T14:44:08;32;32;
40947;PMS5003;49382;-25.924;28.194;2022-08-18T14:46:33;28;28;
40947;PMS5003;49382;-25.924;28.194;2022-08-18T14:48:59;30;30;
40947;PMS5003;49382;-25.924;28.194;2022-08-18T14:51:25;33;32;
40947;PMS5003;49382;-25.924;28.194;2022-08-18T14:53:50;39;37;
40947;PMS5003;49382;-25.924;28.194;2022-08-18T14:56:16;39;38;
40947;PMS5003;49382;-25.924;28.194;2022-08-18T14:58:41;47;45;
40947;PMS5003;49382;-25.924;28.194;2022-08-18T15:01:07;31;31;
40947;PMS5003;49382;-25.924;28.194;2022-08-18T15:03:33;31;31;
40947;PMS5003;49382;-25.924;28.194;2022-08-18T15:05:59;33;33;
40947;PMS5003;49382;-25.924;28.194;2022-08-18T15:08:23;30;30;
40947;PMS5003;49382;-25.924;28.194;2022-08-18T15:10:49;30;30;
40947;PMS5003;49382;-25.924;28.194;2022-08-18T15:13:14;30;29;
40947;PMS5003;49382;-25.924;28.194;2022-08-18T15:15:39;30;30;
40947;PMS5003;49382;-25.924;28.194;2022-08-18T15:18:04;30;30;
40947;PMS5003;49382;-25.924;28.194;2022-08-18T15:20:30;28;28;
40947;PMS5003;49382;-25.924;28.194;2022-08-18T15:22:57;31;30;
40947;PMS5003;49382;-25.924;28.194;2022-08-18T15:25:20;32;30;
40947;PMS5003;49382;-25.924;28.194;2022-08-18T15:27:45;33;33;
40947;PMS5003;49382;-25.924;28.194;2022-08-18T15:30:12;33;32;
40947;PMS5003;49382;-25.924;28.194;2022-08-18T15:32:36;31;31;
40947;PMS5003;49382;-25.924;28.194;2022-08-18T15:35:01;29;29;
40947;PMS5003;49382;-25.924;28.194;2022-08-18T15:37:26;24;22;
40947;PMS5003;49382;-25.924;28.194;2022-08-18T15:42:16;21;20;
40947;PMS5003;49382;-25.924;28.194;2022-08-18T15:44:42;19;19;
40947;PMS5003;49382;-25.924;28.194;2022-08-18T15:47:07;29;28;
40947;PMS5003;49382;-25.924;28.194;2022-08-18T15:49:32;33;32;
40947;PMS5003;49382;-25.924;28.194;2022-08-18T15:51:57;31;30;
40947;PMS5003;49382;-25.924;28.194;2022-08-18T15:54:23;35;35;
40947;PMS5003;49382;-25.924;28.194;2022-08-18T15:56:48;14;14;
40947;PMS5003;49382;-25.924;28.194;2022-08-18T15:59:13;9;9;
40947;PMS5003;49382;-25.924;28.194;2022-08-18T16:01:38;10;10;
40947;PMS5003;49382;-25.924;28.194;2022-08-18T16:04:04;39;39;
40947;PMS5003;49382;-25.924;28.194;2022-08-18T16:06:29;12;12;
40947;PMS5003;49382;-25.924;28.194;2022-08-18T16:08:54;24;23;
40947;PMS5003;49382;-25.924;28.194;2022-08-18T16:11:20;15;14;
40947;PMS5003;49382;-25.924;28.194;2022-08-18T16:13:45;255;255;
40947;PMS5003;49382;-25.924;28.194;2022-08-18T16:16:11;712;703;